Conifer, New York
Current Conditions -  °F | °C
As of 3:51 AM on Monday 24 Nov 2014 (Local Time) from KSLK Reporting Station
Light Rain Light Rain  
Wind Chill: 42°   Ceiling: 9000
Heat Index: 49°   Visibility: 10mi
Dew Point: 40°   Wind: 20mph
Humidity: 71%   Direction: 160°SSE
Pressure: 29.68"   Gusts: 36mph
Location:  44.162°N, 74.433°W
Report Text: KSLK 240851Z AUTO 16017G31KT 10SM -RA OVC090 09/04 A2968 RMK AO2 PK WND 14031/0844 RAB48 SLP056 P0000 60000 T00940044 56050
Loading
Personal Weather Stations






























Interactive Weather Map New forecast layout! Learn more

10-Day Weather Forecast

Advertisements
Track Severe Weather on mobile